Time;durP1;ratioP1;P1;durP2;ratioP2;P2;SDS_P1;SDS_P2;PMS_P1;PMS_P2;Temp;Humidity;BMP_temperature;BMP_pressure;BME280_temperature;BME280_humidity;BME280_pressure;Samples;Min_cycle;Max_cycle;Signal;HPM_P1;HPM_P2
2023/03/27 00:01:30;;;;;;;1.10;0.90;;;;;;;;;;5131775;27;20251;-79
2023/03/27 00:03:57;;;;;;;1.30;1.20;;;;;;;;;;5132775;27;20195;-79
2023/03/27 00:06:26;;;;;;;1.37;1.27;;;;;;;;;;5131719;27;20598;-79
2023/03/27 00:08:54;;;;;;;1.60;1.50;;;;;;;;;;5132373;27;20209;-79
2023/03/27 00:11:23;;;;;;;2.87;1.17;;;;;;;;;;5105985;27;20247;-79
2023/03/27 00:13:53;;;;;;;0.93;0.90;;;;;;;;;;5131626;27;20290;-79
2023/03/27 00:16:20;;;;;;;1.17;1.07;;;;;;;;;;5131908;27;20203;-79
2023/03/27 00:18:48;;;;;;;0.90;0.90;;;;;;;;;;5132270;27;20202;-79
2023/03/27 00:21:15;;;;;;;1.83;1.40;;;;;;;;;;5131502;27;20207;-79
2023/03/27 00:23:42;;;;;;;0.80;0.80;;;;;;;;;;5131891;27;20247;-79
2023/03/27 00:26:10;;;;;;;0.90;0.90;;;;;;;;;;5131733;27;20253;-79
2023/03/27 00:28:37;;;;;;;1.47;1.07;;;;;;;;;;5131488;27;20199;-80
2023/03/27 00:31:04;;;;;;;0.97;0.90;;;;;;;;;;5131542;27;20202;-79
2023/03/27 00:33:31;;;;;;;0.83;0.83;;;;;;;;;;5131339;27;20634;-79
2023/03/27 00:35:57;;;;;;;1.30;1.20;;;;;;;;;;5131389;27;20203;-79
2023/03/27 00:38:24;;;;;;;5.33;1.10;;;;;;;;;;5131401;27;20264;-79
2023/03/27 00:40:53;;;;;;;1.47;1.20;;;;;;;;;;5131605;27;20679;-79
2023/03/27 00:43:26;;;;;;;1.23;1.13;;;;;;;;;;5117465;27;20708;-79
2023/03/27 00:45:55;;;;;;;1.73;1.57;;;;;;;;;;5131765;27;20283;-79
2023/03/27 00:48:23;;;;;;;2.23;2.03;;;;;;;;;;5131643;27;20202;-79
2023/03/27 00:50:50;;;;;;;2.93;2.17;;;;;;;;;;5131336;28;20640;-79
2023/03/27 00:53:21;;;;;;;1.83;1.73;;;;;;;;;;5130547;28;20201;-79
2023/03/27 00:55:51;;;;;;;2.23;1.80;;;;;;;;;;5131610;28;20209;-77
2023/03/27 00:58:21;;;;;;;1.87;1.77;;;;;;;;;;5131487;28;20669;-77
2023/03/27 01:00:52;;;;;;;2.23;1.67;;;;;;;;;;5130793;28;20206;-77
2023/03/27 01:03:20;;;;;;;0.83;0.83;;;;;;;;;;5122891;28;20211;-79
2023/03/27 01:05:47;;;;;;;1.20;1.17;;;;;;;;;;5126732;28;20362;-79
2023/03/27 01:08:15;;;;;;;0.97;0.87;;;;;;;;;;5131269;28;20206;-79
2023/03/27 01:10:49;;;;;;;0.90;0.90;;;;;;;;;;5130847;28;20210;-80
2023/03/27 01:13:26;;;;;;;1.20;1.10;;;;;;;;;;5131627;28;20230;-79
2023/03/27 01:15:57;;;;;;;1.50;1.00;;;;;;;;;;5131129;28;20637;-79
2023/03/27 01:18:36;;;;;;;1.13;0.93;;;;;;;;;;5131569;28;20199;-79
2023/03/27 01:21:31;;;;;;;0.90;0.90;;;;;;;;;;5130925;28;20276;-79
2023/03/27 01:24:40;;;;;;;2.93;0.90;;;;;;;;;;5131230;28;20191;-79
2023/03/27 01:27:10;;;;;;;1.10;1.00;;;;;;;;;;5082406;28;20288;-80
2023/03/27 01:30:00;;;;;;;1.17;0.90;;;;;;;;;;5131056;28;20256;-80
2023/03/27 01:32:50;;;;;;;1.00;1.00;;;;;;;;;;5113167;28;20198;-79
2023/03/27 01:35:42;;;;;;;0.97;0.83;;;;;;;;;;5130922;28;20255;-79
2023/03/27 01:38:36;;;;;;;0.83;0.83;;;;;;;;;;5133843;27;20198;-80
2023/03/27 01:41:09;;;;;;;0.97;0.97;;;;;;;;;;5113318;27;20290;-79
2023/03/27 01:43:41;;;;;;;1.30;1.00;;;;;;;;;;5134524;27;20197;-79
2023/03/27 01:46:09;;;;;;;1.40;1.00;;;;;;;;;;5134562;27;20793;-79
2023/03/27 01:48:40;;;;;;;1.33;1.23;;;;;;;;;;5134559;27;20202;-80
2023/03/27 01:51:11;;;;;;;1.37;1.27;;;;;;;;;;5134821;27;20202;-80
2023/03/27 01:53:41;;;;;;;3.07;1.33;;;;;;;;;;5135091;27;20255;-80
2023/03/27 01:56:16;;;;;;;1.27;1.17;;;;;;;;;;5134183;27;20726;-80
2023/03/27 01:58:45;;;;;;;1.27;1.10;;;;;;;;;;5134702;27;20202;-79
2023/03/27 02:01:15;;;;;;;1.10;1.10;;;;;;;;;;5134589;27;20202;-80
2023/03/27 02:03:44;;;;;;;1.30;1.20;;;;;;;;;;5134229;27;20210;-79
2023/03/27 02:06:14;;;;;;;0.90;0.90;;;;;;;;;;5134168;27;20214;-80
2023/03/27 02:08:45;;;;;;;0.90;0.90;;;;;;;;;;5134395;27;20198;-79
2023/03/27 02:11:13;;;;;;;8.17;5.70;;;;;;;;;;5134577;27;20648;-80
2023/03/27 02:13:42;;;;;;;5.77;4.47;;;;;;;;;;5134595;27;20229;-79
2023/03/27 02:16:13;;;;;;;7.90;5.93;;;;;;;;;;5133827;27;20203;-79
2023/03/27 02:18:46;;;;;;;7.47;4.60;;;;;;;;;;5134170;27;20271;-80
2023/03/27 02:21:14;;;;;;;5.00;3.73;;;;;;;;;;5134037;27;20210;-80
2023/03/27 02:23:40;;;;;;;3.97;2.60;;;;;;;;;;5134130;27;20255;-80
2023/03/27 02:26:10;;;;;;;4.47;2.60;;;;;;;;;;5133644;27;20712;-79
2023/03/27 02:28:47;;;;;;;3.67;2.67;;;;;;;;;;5133766;27;20206;-80
2023/03/27 02:31:28;;;;;;;2.60;1.80;;;;;;;;;;5134315;27;22181;-79
2023/03/27 02:34:28;;;;;;;2.07;1.87;;;;;;;;;;5133589;27;20203;-79
2023/03/27 02:37:01;;;;;;;2.70;2.50;;;;;;;;;;5119631;27;20209;-79
2023/03/27 02:39:35;;;;;;;2.20;2.00;;;;;;;;;;5133812;27;20286;-79
2023/03/27 02:42:08;;;;;;;11.67;8.90;;;;;;;;;;5133831;27;20202;-79
2023/03/27 02:44:40;;;;;;;3.30;2.40;;;;;;;;;;5133573;27;20206;-79
2023/03/27 02:47:08;;;;;;;1.43;1.33;;;;;;;;;;5133404;27;20227;-81
2023/03/27 02:49:38;;;;;;;3.13;1.43;;;;;;;;;;5132314;27;20749;-79
2023/03/27 02:52:08;;;;;;;4.73;3.43;;;;;;;;;;5133663;27;20194;-79
2023/03/27 02:54:38;;;;;;;3.37;2.67;;;;;;;;;;5133630;27;20255;-79
2023/03/27 02:57:08;;;;;;;6.33;2.40;;;;;;;;;;5133773;27;20198;-79
2023/03/27 02:59:41;;;;;;;2.70;2.50;;;;;;;;;;5133461;27;20198;-79
2023/03/27 03:02:11;;;;;;;2.03;1.90;;;;;;;;;;5133859;27;20210;-80
2023/03/27 03:04:40;;;;;;;4.27;2.73;;;;;;;;;;5132796;27;20697;-80
2023/03/27 03:07:07;;;;;;;2.70;1.40;;;;;;;;;;5133351;27;20287;-80
2023/03/27 03:09:36;;;;;;;3.27;2.83;;;;;;;;;;5119629;27;20194;-79
2023/03/27 03:12:03;;;;;;;5.67;3.40;;;;;;;;;;5133329;27;20230;-79
2023/03/27 03:14:32;;;;;;;16.70;9.40;;;;;;;;;;5132985;27;20216;-79
2023/03/27 03:17:00;;;;;;;10.63;7.47;;;;;;;;;;5132901;27;20588;-80
2023/03/27 03:19:27;;;;;;;3.37;2.53;;;;;;;;;;5132814;27;20271;-79
2023/03/27 03:21:54;;;;;;;3.80;3.17;;;;;;;;;;5133047;27;20214;-79
2023/03/27 03:24:21;;;;;;;4.43;3.27;;;;;;;;;;5105938;27;20247;-79
2023/03/27 03:26:48;;;;;;;5.07;3.00;;;;;;;;;;5132551;27;20226;-80
2023/03/27 03:29:15;;;;;;;3.43;2.50;;;;;;;;;;5132718;27;20199;-79
2023/03/27 03:31:45;;;;;;;3.47;2.40;;;;;;;;;;5132313;27;20195;-80
2023/03/27 03:34:15;;;;;;;2.50;2.30;;;;;;;;;;5132466;27;20199;-80
2023/03/27 03:36:43;;;;;;;2.83;2.63;;;;;;;;;;5118580;27;20207;-79
2023/03/27 03:39:11;;;;;;;2.73;2.53;;;;;;;;;;5132450;27;20222;-80
2023/03/27 03:41:38;;;;;;;5.40;3.00;;;;;;;;;;5132065;27;20738;-79
2023/03/27 03:44:04;;;;;;;4.30;3.37;;;;;;;;;;5132611;27;20741;-80
2023/03/27 03:46:31;;;;;;;4.93;4.43;;;;;;;;;;5131528;27;20226;-79
2023/03/27 03:48:58;;;;;;;4.53;4.13;;;;;;;;;;5132677;27;20199;-77
2023/03/27 03:51:27;;;;;;;6.03;4.27;;;;;;;;;;5131656;27;20202;-77
2023/03/27 03:53:53;;;;;;;13.07;8.10;;;;;;;;;;5132639;27;20199;-79
2023/03/27 03:56:20;;;;;;;7.53;4.20;;;;;;;;;;5131904;27;20203;-80
2023/03/27 03:58:47;;;;;;;4.13;3.53;;;;;;;;;;5131985;27;20228;-80
2023/03/27 04:01:13;;;;;;;3.73;2.90;;;;;;;;;;5131589;27;20685;-80
2023/03/27 04:03:40;;;;;;;3.20;2.90;;;;;;;;;;5132127;27;20677;-79
2023/03/27 04:06:09;;;;;;;4.77;3.53;;;;;;;;;;5131979;27;20226;-77
2023/03/27 04:08:38;;;;;;;4.87;4.20;;;;;;;;;;5132322;27;20264;-77
2023/03/27 04:11:05;;;;;;;4.47;3.90;;;;;;;;;;5131992;27;20248;-77
2023/03/27 04:13:32;;;;;;;6.33;4.90;;;;;;;;;;5132089;27;20234;-77
2023/03/27 04:16:00;;;;;;;6.13;5.50;;;;;;;;;;5131806;27;20202;-77
2023/03/27 04:18:29;;;;;;;6.93;5.60;;;;;;;;;;5132340;27;20285;-77
2023/03/27 04:20:57;;;;;;;6.13;5.37;;;;;;;;;;5132015;27;20203;-78
2023/03/27 04:23:29;;;;;;;14.10;9.97;;;;;;;;;;5132244;27;20210;-78
2023/03/27 04:25:58;;;;;;;7.27;6.57;;;;;;;;;;5132026;27;20225;-77
2023/03/27 04:28:26;;;;;;;6.50;5.50;;;;;;;;;;5132071;27;20203;-79
2023/03/27 04:30:52;;;;;;;5.57;4.63;;;;;;;;;;5131738;27;20202;-78
2023/03/27 04:33:21;;;;;;;6.90;4.63;;;;;;;;;;5131194;27;20256;-78
2023/03/27 04:35:50;;;;;;;4.83;3.43;;;;;;;;;;5131751;27;20210;-78
2023/03/27 04:38:18;;;;;;;4.07;3.63;;;;;;;;;;5131335;27;20677;-79
2023/03/27 04:40:48;;;;;;;4.77;3.13;;;;;;;;;;5131057;27;20252;-79
2023/03/27 04:43:16;;;;;;;5.10;4.70;;;;;;;;;;5131115;27;20194;-79
2023/03/27 04:45:45;;;;;;;12.33;10.57;;;;;;;;;;5132225;27;20215;-80
2023/03/27 04:48:12;;;;;;;11.97;9.37;;;;;;;;;;5131018;27;20331;-79
2023/03/27 04:50:39;;;;;;;19.80;15.60;;;;;;;;;;5131519;27;20251;-79
2023/03/27 04:53:07;;;;;;;7.73;6.90;;;;;;;;;;5131870;28;20191;-79
2023/03/27 04:55:36;;;;;;;8.37;7.57;;;;;;;;;;5131889;28;20213;-79
2023/03/27 04:58:06;;;;;;;8.33;7.63;;;;;;;;;;5132019;28;20218;-79
2023/03/27 05:00:35;;;;;;;8.20;7.40;;;;;;;;;;5131175;28;20198;-79
2023/03/27 05:03:02;;;;;;;6.07;5.47;;;;;;;;;;5131763;28;20191;-79
2023/03/27 05:05:29;;;;;;;8.57;5.83;;;;;;;;;;5119678;28;20260;-79
2023/03/27 05:07:55;;;;;;;8.63;7.33;;;;;;;;;;5129597;28;20223;-79
2023/03/27 05:10:22;;;;;;;7.97;6.83;;;;;;;;;;5131316;28;20195;-79
2023/03/27 05:12:51;;;;;;;8.53;7.20;;;;;;;;;;5133275;27;20287;-79
2023/03/27 05:15:18;;;;;;;7.97;6.10;;;;;;;;;;5135794;27;20633;-79
2023/03/27 05:17:51;;;;;;;12.40;7.80;;;;;;;;;;5135081;27;20730;-80
2023/03/27 05:20:19;;;;;;;7.73;7.00;;;;;;;;;;5135985;27;20202;-79
2023/03/27 05:22:46;;;;;;;10.03;9.13;;;;;;;;;;5135281;27;20209;-80
2023/03/27 05:25:13;;;;;;;8.43;7.70;;;;;;;;;;5134510;27;20202;-79
2023/03/27 05:27:44;;;;;;;8.27;7.47;;;;;;;;;;5114822;28;20233;-79
2023/03/27 05:30:13;;;;;;;7.60;6.90;;;;;;;;;;5130436;27;20237;-79
2023/03/27 05:32:39;;;;;;;9.50;7.07;;;;;;;;;;5134968;27;20321;-79
2023/03/27 05:35:10;;;;;;;9.07;8.23;;;;;;;;;;5134972;27;20199;-79
2023/03/27 05:37:37;;;;;;;8.60;6.97;;;;;;;;;;5134850;27;20198;-79
2023/03/27 05:40:05;;;;;;;11.07;9.57;;;;;;;;;;5135008;27;20206;-79
2023/03/27 05:42:32;;;;;;;19.80;13.83;;;;;;;;;;5135010;27;20207;-79
2023/03/27 05:44:59;;;;;;;13.23;11.57;;;;;;;;;;5131592;27;20643;-79
2023/03/27 05:47:26;;;;;;;7.90;7.10;;;;;;;;;;5124399;27;20639;-79
2023/03/27 05:49:52;;;;;;;11.93;9.10;;;;;;;;;;5134462;27;20688;-79
2023/03/27 05:52:21;;;;;;;15.10;8.77;;;;;;;;;;5134838;27;20263;-79
2023/03/27 05:54:47;;;;;;;10.27;8.73;;;;;;;;;;5134128;27;20195;-79
2023/03/27 05:57:14;;;;;;;10.00;8.63;;;;;;;;;;5135250;27;20202;-79
2023/03/27 05:59:41;;;;;;;14.87;10.47;;;;;;;;;;5134489;27;20203;-79
2023/03/27 06:02:09;;;;;;;11.80;10.50;;;;;;;;;;5134531;27;20669;-79
2023/03/27 06:04:36;;;;;;;25.77;19.83;;;;;;;;;;5134411;27;20240;-79
2023/03/27 06:07:03;;;;;;;28.83;24.50;;;;;;;;;;5134768;27;20230;-79
2023/03/27 06:09:31;;;;;;;13.03;11.73;;;;;;;;;;5134406;27;20210;-79
2023/03/27 06:11:58;;;;;;;13.03;8.40;;;;;;;;;;5134266;27;20278;-79
2023/03/27 06:14:25;;;;;;;10.27;7.57;;;;;;;;;;5134204;27;20207;-79
2023/03/27 06:16:53;;;;;;;9.53;8.57;;;;;;;;;;5121929;27;20239;-79
2023/03/27 06:19:22;;;;;;;11.27;7.67;;;;;;;;;;5133605;27;20194;-79
2023/03/27 06:21:49;;;;;;;8.53;7.10;;;;;;;;;;5134562;27;20210;-79
2023/03/27 06:24:16;;;;;;;12.60;9.17;;;;;;;;;;5133780;27;20202;-79
2023/03/27 06:26:45;;;;;;;9.07;8.20;;;;;;;;;;5133665;27;20736;-79
2023/03/27 06:29:12;;;;;;;9.47;8.07;;;;;;;;;;5134734;27;20220;-79
2023/03/27 06:31:38;;;;;;;11.40;8.67;;;;;;;;;;5134040;27;20206;-79
2023/03/27 06:34:05;;;;;;;10.43;8.30;;;;;;;;;;5134388;27;20211;-79
2023/03/27 06:36:32;;;;;;;9.53;7.57;;;;;;;;;;5133556;27;20199;-80
2023/03/27 06:39:02;;;;;;;8.90;7.30;;;;;;;;;;5134281;27;20293;-79
2023/03/27 06:41:28;;;;;;;7.87;7.03;;;;;;;;;;5133081;27;20203;-78
2023/03/27 06:43:57;;;;;;;8.70;7.80;;;;;;;;;;5133560;27;20202;-78
2023/03/27 06:46:25;;;;;;;10.30;8.67;;;;;;;;;;5133184;27;20206;-78
2023/03/27 06:48:52;;;;;;;11.43;8.23;;;;;;;;;;5133712;27;20686;-79
2023/03/27 06:51:21;;;;;;;12.43;8.73;;;;;;;;;;5133115;27;20203;-79
2023/03/27 06:53:48;;;;;;;10.90;8.07;;;;;;;;;;5133758;27;20206;-79
2023/03/27 06:56:15;;;;;;;9.57;8.60;;;;;;;;;;5133796;27;20284;-78
2023/03/27 06:58:42;;;;;;;8.50;7.77;;;;;;;;;;5133882;27;20204;-78
2023/03/27 07:01:10;;;;;;;14.73;10.90;;;;;;;;;;5130527;27;20680;-79
2023/03/27 07:03:37;;;;;;;12.00;9.70;;;;;;;;;;5122949;27;20202;-78
2023/03/27 07:06:05;;;;;;;16.90;10.63;;;;;;;;;;5132879;27;20199;-78
2023/03/27 07:08:31;;;;;;;11.40;9.90;;;;;;;;;;5133325;27;20218;-78
2023/03/27 07:10:59;;;;;;;11.03;9.87;;;;;;;;;;5133022;27;20199;-79
2023/03/27 07:13:26;;;;;;;11.87;10.60;;;;;;;;;;5132793;27;20224;-79
2023/03/27 07:15:53;;;;;;;15.00;10.50;;;;;;;;;;5132864;27;20203;-79
2023/03/27 07:18:21;;;;;;;12.70;9.80;;;;;;;;;;5132827;27;20198;-79
2023/03/27 07:20:49;;;;;;;9.90;8.43;;;;;;;;;;5133155;27;20289;-79
2023/03/27 07:23:16;;;;;;;10.80;9.27;;;;;;;;;;5133445;27;20293;-79
2023/03/27 07:25:43;;;;;;;9.93;8.40;;;;;;;;;;5132518;27;20199;-79
2023/03/27 07:28:13;;;;;;;10.37;9.30;;;;;;;;;;5133312;27;20232;-78
2023/03/27 07:30:40;;;;;;;11.63;9.40;;;;;;;;;;5133290;27;20321;-79
2023/03/27 07:33:08;;;;;;;9.20;8.13;;;;;;;;;;5133062;27;20681;-79
2023/03/27 07:35:41;;;;;;;11.07;9.87;;;;;;;;;;5118392;27;20220;-79
2023/03/27 07:38:09;;;;;;;10.70;9.40;;;;;;;;;;5132134;27;20289;-79
2023/03/27 07:40:37;;;;;;;13.40;9.13;;;;;;;;;;5132741;27;20281;-80
2023/03/27 07:43:07;;;;;;;12.43;9.53;;;;;;;;;;5132817;27;20226;-79
2023/03/27 07:45:34;;;;;;;12.47;9.30;;;;;;;;;;5132568;27;20586;-79
2023/03/27 07:48:05;;;;;;;13.30;10.23;;;;;;;;;;5132229;27;20713;-79
2023/03/27 07:50:32;;;;;;;13.77;9.50;;;;;;;;;;5132497;27;20280;-79
2023/03/27 07:53:00;;;;;;;11.33;9.43;;;;;;;;;;5132256;27;20197;-79
2023/03/27 07:55:30;;;;;;;12.60;8.90;;;;;;;;;;5132421;27;20193;-79
2023/03/27 07:57:57;;;;;;;11.27;9.20;;;;;;;;;;5132355;27;20244;-79
2023/03/27 08:00:24;;;;;;;15.17;9.60;;;;;;;;;;5132497;27;20205;-80
2023/03/27 08:02:51;;;;;;;9.97;8.80;;;;;;;;;;5132284;27;20202;-79
2023/03/27 08:05:18;;;;;;;12.33;10.60;;;;;;;;;;5132086;27;20203;-79
2023/03/27 08:07:46;;;;;;;10.40;9.03;;;;;;;;;;5131898;27;20764;-79
2023/03/27 08:10:15;;;;;;;12.87;9.93;;;;;;;;;;5132365;27;20193;-79
2023/03/27 08:12:42;;;;;;;14.40;11.17;;;;;;;;;;5132197;27;20316;-79
2023/03/27 08:15:09;;;;;;;12.07;9.20;;;;;;;;;;5131725;27;20208;-79
2023/03/27 08:17:36;;;;;;;11.77;9.37;;;;;;;;;;5132077;27;20268;-79
2023/03/27 08:20:07;;;;;;;14.53;10.53;;;;;;;;;;5132361;27;20202;-79
2023/03/27 08:22:35;;;;;;;10.77;9.67;;;;;;;;;;5132361;27;20194;-79
2023/03/27 08:25:03;;;;;;;11.57;10.37;;;;;;;;;;5131777;27;20221;-79
2023/03/27 08:27:31;;;;;;;14.23;11.10;;;;;;;;;;5131988;27;20233;-79
2023/03/27 08:29:58;;;;;;;14.43;12.80;;;;;;;;;;5131744;27;20203;-79
2023/03/27 08:32:25;;;;;;;12.67;10.43;;;;;;;;;;5104896;27;20247;-79
2023/03/27 08:34:52;;;;;;;14.10;10.57;;;;;;;;;;5131809;27;20228;-80
2023/03/27 08:37:19;;;;;;;15.87;13.03;;;;;;;;;;5131971;27;20338;-79
2023/03/27 08:39:46;;;;;;;14.67;11.57;;;;;;;;;;5131721;27;20358;-80
2023/03/27 08:42:16;;;;;;;12.13;10.90;;;;;;;;;;5131859;27;20223;-79
2023/03/27 08:44:44;;;;;;;12.43;9.87;;;;;;;;;;5131474;27;20247;-79
2023/03/27 08:47:14;;;;;;;12.47;10.57;;;;;;;;;;5131379;27;20202;-79
2023/03/27 08:49:44;;;;;;;12.73;9.30;;;;;;;;;;5131699;27;20665;-79
2023/03/27 08:52:14;;;;;;;13.30;11.90;;;;;;;;;;5131275;28;20203;-79
2023/03/27 08:54:42;;;;;;;12.47;10.23;;;;;;;;;;5131400;28;20597;-80
2023/03/27 08:57:18;;;;;;;12.93;10.33;;;;;;;;;;5131598;28;20259;-79
2023/03/27 08:59:46;;;;;;;11.17;9.40;;;;;;;;;;5131362;28;20230;-79
2023/03/27 09:02:22;;;;;;;12.03;10.10;;;;;;;;;;5131710;28;20301;-79
2023/03/27 09:04:53;;;;;;;9.83;8.93;;;;;;;;;;5131119;28;20198;-79
2023/03/27 09:07:26;;;;;;;8.90;7.80;;;;;;;;;;5131614;28;20282;-79
2023/03/27 09:09:58;;;;;;;9.27;8.20;;;;;;;;;;5131377;28;20292;-79
2023/03/27 09:12:41;;;;;;;10.13;8.77;;;;;;;;;;5130914;28;20314;-80
2023/03/27 09:15:12;;;;;;;12.13;10.10;;;;;;;;;;5131594;28;20255;-79
2023/03/27 09:17:41;;;;;;;11.73;10.53;;;;;;;;;;5131626;28;20226;-79
2023/03/27 09:20:17;;;;;;;25.30;18.67;;;;;;;;;;5131320;28;20191;-79
2023/03/27 09:22:46;;;;;;;11.13;10.00;;;;;;;;;;5104703;28;20281;-79
2023/03/27 09:25:20;;;;;;;9.57;8.67;;;;;;;;;;5131489;28;20285;-80
2023/03/27 09:27:48;;;;;;;8.97;8.07;;;;;;;;;;5131370;28;20217;-79
2023/03/27 09:30:21;;;;;;;9.17;8.07;;;;;;;;;;5131427;28;20198;-79
2023/03/27 09:32:50;;;;;;;11.20;9.50;;;;;;;;;;5131737;28;20198;-79
2023/03/27 09:35:19;;;;;;;12.40;10.03;;;;;;;;;;5131525;28;20195;-80
2023/03/27 09:37:47;;;;;;;10.90;9.80;;;;;;;;;;5131443;28;20627;-79
2023/03/27 09:40:19;;;;;;;9.63;8.73;;;;;;;;;;5131480;28;20195;-79
2023/03/27 09:42:49;;;;;;;10.20;9.03;;;;;;;;;;5131569;28;20740;-79
2023/03/27 09:45:17;;;;;;;14.30;12.80;;;;;;;;;;5131189;28;20312;-80
2023/03/27 09:47:48;;;;;;;15.50;11.00;;;;;;;;;;5131238;28;20219;-79
2023/03/27 09:50:24;;;;;;;11.10;9.97;;;;;;;;;;5117781;28;20287;-79
2023/03/27 09:52:54;;;;;;;9.53;7.57;;;;;;;;;;5130940;28;20701;-79
2023/03/27 09:55:25;;;;;;;10.37;9.37;;;;;;;;;;5131525;28;20682;-79
2023/03/27 09:57:57;;;;;;;9.77;8.67;;;;;;;;;;5128567;27;20267;-79
2023/03/27 10:00:32;;;;;;;9.90;8.33;;;;;;;;;;5124918;27;20315;-79
2023/03/27 10:03:04;;;;;;;8.23;7.43;;;;;;;;;;5134868;27;20207;-79
2023/03/27 10:05:31;;;;;;;8.60;7.80;;;;;;;;;;5134810;27;20624;-79
2023/03/27 10:07:58;;;;;;;7.97;7.17;;;;;;;;;;5134796;27;20233;-80
2023/03/27 10:10:30;;;;;;;8.63;7.70;;;;;;;;;;5135075;27;20227;-79
2023/03/27 10:13:00;;;;;;;8.63;7.73;;;;;;;;;;5134396;27;20226;-79
2023/03/27 10:15:33;;;;;;;8.83;8.03;;;;;;;;;;5134835;27;20562;-80
2023/03/27 10:18:01;;;;;;;11.00;8.83;;;;;;;;;;5134360;27;20637;-80
2023/03/27 10:20:28;;;;;;;11.27;9.47;;;;;;;;;;5134104;27;20206;-80
2023/03/27 10:22:56;;;;;;;9.77;8.53;;;;;;;;;;5134631;27;20241;-79
2023/03/27 10:25:29;;;;;;;9.50;8.00;;;;;;;;;;5134409;27;20604;-79
2023/03/27 10:28:07;;;;;;;9.07;8.20;;;;;;;;;;5133978;27;20742;-79
2023/03/27 10:30:36;;;;;;;9.30;8.40;;;;;;;;;;5134021;27;20614;-80
2023/03/27 10:33:04;;;;;;;8.53;6.63;;;;;;;;;;5134188;27;20203;-79
2023/03/27 10:35:34;;;;;;;7.87;6.83;;;;;;;;;;5133808;27;20195;-79
2023/03/27 10:38:01;;;;;;;31.20;21.27;;;;;;;;;;5134469;27;20235;-79
2023/03/27 10:40:30;;;;;;;15.53;11.47;;;;;;;;;;5134146;27;20207;-80
2023/03/27 10:42:58;;;;;;;16.23;11.40;;;;;;;;;;5134295;27;20216;-80
2023/03/27 10:45:25;;;;;;;14.50;10.40;;;;;;;;;;5134123;27;20204;-80
2023/03/27 10:47:55;;;;;;;9.83;8.43;;;;;;;;;;5133574;27;20196;-79
2023/03/27 10:50:25;;;;;;;9.50;8.57;;;;;;;;;;5133966;27;20203;-79
2023/03/27 10:53:00;;;;;;;9.60;8.50;;;;;;;;;;5133545;27;20211;-79
2023/03/27 10:55:43;;;;;;;9.27;8.33;;;;;;;;;;5134093;27;20208;-79
2023/03/27 10:58:20;;;;;;;11.43;8.30;;;;;;;;;;5133408;27;20253;-80
2023/03/27 11:00:53;;;;;;;11.67;8.43;;;;;;;;;;5133983;27;20210;-79
2023/03/27 11:03:26;;;;;;;7.30;6.60;;;;;;;;;;5133295;27;20628;-79
2023/03/27 11:05:53;;;;;;;9.37;8.40;;;;;;;;;;5133443;27;20214;-79
2023/03/27 11:08:22;;;;;;;16.90;12.60;;;;;;;;;;5133397;27;20231;-79
2023/03/27 11:10:50;;;;;;;7.33;6.13;;;;;;;;;;5131391;27;20206;-79
2023/03/27 11:13:21;;;;;;;12.77;9.43;;;;;;;;;;5133187;27;20785;-79
2023/03/27 11:15:52;;;;;;;8.30;7.63;;;;;;;;;;5133427;27;20217;-79
2023/03/27 11:18:24;;;;;;;7.13;6.43;;;;;;;;;;5133495;27;20214;-79
2023/03/27 11:20:55;;;;;;;7.33;6.63;;;;;;;;;;5132690;27;20607;-79
2023/03/27 11:23:27;;;;;;;7.40;6.70;;;;;;;;;;5133265;27;20199;-79
2023/03/27 11:25:54;;;;;;;7.90;6.60;;;;;;;;;;5133171;27;20203;-79
2023/03/27 11:28:26;;;;;;;10.47;7.07;;;;;;;;;;5133612;27;20244;-79
2023/03/27 11:30:55;;;;;;;5.60;4.90;;;;;;;;;;5125335;27;20263;-80
2023/03/27 11:33:35;;;;;;;3.80;3.50;;;;;;;;;;5127301;27;20202;-79
2023/03/27 11:36:11;;;;;;;7.83;4.07;;;;;;;;;;5133369;27;20622;-79
2023/03/27 11:38:42;;;;;;;5.30;3.87;;;;;;;;;;5132675;27;20202;-79
2023/03/27 11:41:11;;;;;;;4.47;4.07;;;;;;;;;;5133071;27;20201;-79
2023/03/27 11:43:39;;;;;;;3.90;3.50;;;;;;;;;;5132900;27;20281;-79
2023/03/27 11:46:15;;;;;;;3.53;3.23;;;;;;;;;;5132907;27;20197;-79
2023/03/27 11:48:57;;;;;;;3.70;3.40;;;;;;;;;;5132668;27;20229;-79
2023/03/27 11:51:36;;;;;;;5.37;3.20;;;;;;;;;;5132996;27;20209;-78
2023/03/27 11:54:14;;;;;;;4.53;4.13;;;;;;;;;;5132566;27;20291;-79
2023/03/27 11:56:50;;;;;;;7.83;4.33;;;;;;;;;;5132233;27;20198;-78
2023/03/27 11:59:27;;;;;;;11.03;4.20;;;;;;;;;;5132570;27;20212;-79
2023/03/27 12:01:58;;;;;;;4.67;3.90;;;;;;;;;;5132440;27;20201;-79
2023/03/27 12:04:37;;;;;;;5.20;4.80;;;;;;;;;;5132527;27;20202;-79
2023/03/27 12:07:10;;;;;;;4.37;3.97;;;;;;;;;;5132577;27;20201;-79
2023/03/27 12:09:49;;;;;;;5.63;5.07;;;;;;;;;;5132396;27;20222;-79
2023/03/27 12:12:31;;;;;;;7.27;5.67;;;;;;;;;;5132075;27;20273;-79
2023/03/27 12:15:05;;;;;;;5.90;5.30;;;;;;;;;;5132455;27;20206;-79
2023/03/27 12:17:42;;;;;;;5.27;4.77;;;;;;;;;;5132411;27;20198;-79
2023/03/27 12:20:35;;;;;;;7.03;5.63;;;;;;;;;;5132522;27;20609;-79
2023/03/27 12:23:10;;;;;;;5.30;4.03;;;;;;;;;;5101470;28;20204;-79
2023/03/27 12:25:48;;;;;;;6.70;4.30;;;;;;;;;;5115343;27;20198;-76
2023/03/27 12:28:25;;;;;;;4.40;4.00;;;;;;;;;;5131969;27;20198;-76
2023/03/27 12:30:56;;;;;;;6.43;4.77;;;;;;;;;;5132188;27;20233;-77
2023/03/27 12:33:42;;;;;;;5.33;4.37;;;;;;;;;;5131290;27;20206;-76
2023/03/27 12:36:13;;;;;;;5.43;5.00;;;;;;;;;;5131865;27;20210;-77
2023/03/27 12:38:42;;;;;;;4.77;4.30;;;;;;;;;;5131880;27;20198;-77
2023/03/27 12:41:20;;;;;;;5.47;4.47;;;;;;;;;;5131602;27;20259;-77
2023/03/27 12:43:47;;;;;;;4.50;3.93;;;;;;;;;;5131594;27;20566;-77
2023/03/27 12:46:31;;;;;;;5.17;4.63;;;;;;;;;;5131213;27;20195;-77
2023/03/27 12:49:04;;;;;;;3.70;3.40;;;;;;;;;;5131134;27;20226;-77
2023/03/27 12:51:42;;;;;;;5.30;4.03;;;;;;;;;;5131637;27;20236;-80
2023/03/27 12:54:14;;;;;;;5.67;3.50;;;;;;;;;;5131935;28;20205;-77
2023/03/27 12:56:41;;;;;;;3.70;3.40;;;;;;;;;;5131029;28;20191;-77
2023/03/27 12:59:19;;;;;;;3.90;3.60;;;;;;;;;;5131073;28;20203;-77
2023/03/27 13:01:59;;;;;;;3.90;3.60;;;;;;;;;;5131229;28;20681;-77
2023/03/27 13:04:48;;;;;;;4.60;4.20;;;;;;;;;;5131174;28;20748;-77
2023/03/27 13:07:22;;;;;;;4.53;3.70;;;;;;;;;;5131501;28;20310;-77
2023/03/27 13:09:56;;;;;;;3.47;3.17;;;;;;;;;;5131113;28;20665;-77
2023/03/27 13:12:43;;;;;;;4.60;4.20;;;;;;;;;;5120423;28;20265;-78
2023/03/27 13:15:21;;;;;;;6.23;4.07;;;;;;;;;;5110728;28;20237;-77
2023/03/27 13:18:07;;;;;;;5.60;4.30;;;;;;;;;;5109932;28;20630;-77
2023/03/27 13:20:46;;;;;;;2.97;2.77;;;;;;;;;;5110095;28;20207;-78
2023/03/27 13:23:27;;;;;;;10.30;4.23;;;;;;;;;;5110854;28;20654;-78
2023/03/27 13:26:15;;;;;;;7.17;3.47;;;;;;;;;;5110600;28;20334;-77
2023/03/27 13:28:47;;;;;;;6.60;3.90;;;;;;;;;;5110321;28;20939;-78
2023/03/27 13:31:54;;;;;;;6.50;3.60;;;;;;;;;;5110640;28;20273;-77
2023/03/27 13:34:29;;;;;;;5.03;3.73;;;;;;;;;;5092445;28;20282;-77
2023/03/27 13:37:47;;;;;;;4.80;4.00;;;;;;;;;;5113580;28;20194;-77
2023/03/27 13:40:25;;;;;;;6.33;4.40;;;;;;;;;;5054922;28;20739;-78
2023/03/27 13:42:55;;;;;;;4.73;4.13;;;;;;;;;;5114475;27;20700;-77
2023/03/27 13:45:26;;;;;;;7.33;4.90;;;;;;;;;;5114164;28;20252;-77
2023/03/27 13:48:17;;;;;;;5.33;4.20;;;;;;;;;;5114411;28;20203;-78
2023/03/27 13:51:10;;;;;;;4.10;3.70;;;;;;;;;;5114384;28;20231;-77
2023/03/27 13:54:03;;;;;;;5.33;4.27;;;;;;;;;;5088824;28;20199;-78
2023/03/27 13:56:40;;;;;;;3.90;3.60;;;;;;;;;;5099423;28;20202;-77
2023/03/27 13:59:24;;;;;;;4.13;3.83;;;;;;;;;;5107688;28;20206;-78
2023/03/27 14:01:56;;;;;;;3.50;3.20;;;;;;;;;;5091389;28;20284;-77
2023/03/27 14:04:32;;;;;;;6.50;5.40;;;;;;;;;;5114258;28;20211;-77
2023/03/27 14:07:24;;;;;;;4.50;4.20;;;;;;;;;;5114062;28;20198;-78
2023/03/27 14:10:00;;;;;;;4.73;4.33;;;;;;;;;;5113915;28;20615;-77
2023/03/27 14:12:39;;;;;;;5.17;4.57;;;;;;;;;;5113453;28;20668;-78
2023/03/27 14:15:18;;;;;;;5.23;4.73;;;;;;;;;;5114214;28;20652;-78
2023/03/27 14:17:56;;;;;;;6.67;5.03;;;;;;;;;;5113685;28;20195;-77
2023/03/27 14:20:24;;;;;;;4.90;4.20;;;;;;;;;;5104581;28;20211;-77
2023/03/27 14:22:55;;;;;;;4.60;4.20;;;;;;;;;;5113570;28;20589;-76
2023/03/27 14:25:24;;;;;;;5.20;4.13;;;;;;;;;;5109580;28;20748;-77
2023/03/27 14:27:53;;;;;;;6.37;4.77;;;;;;;;;;5112982;28;20694;-78
2023/03/27 14:30:22;;;;;;;15.90;11.27;;;;;;;;;;5113366;28;20231;-77
2023/03/27 14:32:49;;;;;;;9.73;6.90;;;;;;;;;;5112784;28;20219;-76
2023/03/27 14:35:28;;;;;;;4.57;3.90;;;;;;;;;;5097840;28;20277;-76
2023/03/27 14:37:58;;;;;;;4.90;4.43;;;;;;;;;;5102695;28;20284;-76
2023/03/27 14:40:29;;;;;;;8.83;6.60;;;;;;;;;;5113789;28;20277;-76
2023/03/27 14:42:58;;;;;;;34.43;19.50;;;;;;;;;;5113197;28;20208;-76
2023/03/27 14:45:28;;;;;;;65.13;32.53;;;;;;;;;;5112887;28;20258;-76
2023/03/27 14:47:58;;;;;;;19.60;12.70;;;;;;;;;;5112875;28;20582;-76
2023/03/27 14:50:25;;;;;;;17.33;12.60;;;;;;;;;;5112434;28;20220;-76
2023/03/27 14:52:54;;;;;;;4.43;3.60;;;;;;;;;;5112554;28;20683;-77
2023/03/27 14:55:22;;;;;;;3.97;3.23;;;;;;;;;;5087214;28;20195;-79
2023/03/27 14:57:50;;;;;;;7.13;3.90;;;;;;;;;;5112402;28;20593;-79
2023/03/27 15:00:22;;;;;;;5.87;4.07;;;;;;;;;;5113238;28;20264;-80
2023/03/27 15:02:51;;;;;;;8.80;5.13;;;;;;;;;;5112438;28;20210;-80